Ashland, North Carolina
Current Conditions -  °F | °C
As of 5:15 AM on Sunday 26 Oct 2014 (Local Time) from KGEV Reporting Station
Clear Clear  
Wind Chill: 58°   Ceiling: Unl
Heat Index: 58°   Visibility: 10mi
Dew Point: 46°   Wind: 28mph
Humidity: 63%   Direction: 290°WNW
Pressure: 29.9"   Gusts: 40mph
Location:  36.4481°N, 81.6486°W
Report Text: KGEV 260915Z AUTO 29024G35KT 10SM CLR 14/08 A2990 RMK AO2 T01440075
Loading
Personal Weather Stations






























Interactive Weather Map
Tropical Storm Tracking
New forecast layout! Learn more

10-Day Weather Forecast

Advertisements
Track Severe Weather on mobile